createdAt,value
2017-10-22T00:00:26.936Z,10.90
2017-10-22T00:01:31.104Z,14.02
2017-10-22T00:02:35.273Z,18.17
2017-10-22T00:03:39.568Z,14.95
2017-10-22T00:04:44.624Z,11.07
2017-10-22T00:05:48.853Z,17.95
2017-10-22T00:06:53.058Z,16.12
2017-10-22T00:07:57.310Z,11.65
2017-10-22T00:09:01.674Z,17.60
2017-10-22T00:10:05.937Z,13.43
2017-10-22T00:11:10.953Z,11.60
2017-10-22T00:12:15.942Z,7.77
2017-10-22T00:13:20.245Z,8.27
2017-10-22T00:14:24.533Z,14.90
2017-10-22T00:15:28.794Z,13.13
2017-10-22T00:16:32.963Z,9.65
2017-10-22T00:17:37.445Z,14.85
2017-10-22T00:18:41.667Z,11.25
2017-10-22T00:19:45.911Z,7.85
2017-10-22T00:20:50.144Z,11.95
2017-10-22T00:21:55.162Z,15.23
2017-10-22T00:23:00.190Z,9.90
2017-10-22T00:24:05.157Z,13.27
2017-10-22T00:25:09.516Z,20.17
2017-10-22T00:26:18.273Z,16.35
2017-10-22T00:27:23.930Z,11.85
2017-10-22T00:28:29.234Z,9.00
2017-10-22T00:29:33.519Z,10.80
2017-10-22T00:30:37.793Z,10.20
2017-10-22T00:31:42.032Z,9.80
2017-10-22T00:32:46.289Z,12.73
2017-10-22T00:33:50.571Z,9.23
2017-10-22T00:34:54.883Z,13.73
2017-10-22T00:35:59.084Z,17.27
2017-10-22T00:37:03.329Z,9.50
2017-10-22T00:38:07.519Z,14.87
2017-10-22T00:39:11.984Z,9.20
2017-10-22T00:40:16.229Z,17.95
2017-10-22T00:41:20.477Z,9.15
2017-10-22T00:42:24.903Z,16.15
2017-10-22T00:43:29.133Z,17.03
2017-10-22T00:44:33.682Z,13.40
2017-10-22T00:45:38.699Z,17.20
2017-10-22T00:46:42.986Z,15.10
2017-10-22T00:47:47.310Z,14.25
2017-10-22T00:48:51.609Z,14.60
2017-10-22T00:49:55.861Z,9.80
2017-10-22T00:51:00.034Z,11.50
2017-10-22T00:52:04.283Z,13.97
2017-10-22T00:53:08.505Z,12.23
2017-10-22T00:54:12.747Z,14.80
2017-10-22T00:55:16.956Z,10.23
2017-10-22T00:56:21.940Z,13.60
2017-10-22T00:57:26.715Z,9.27
2017-10-22T00:58:31.730Z,12.55
2017-10-22T00:59:36.806Z,12.63
2017-10-22T01:00:41.249Z,12.27
2017-10-22T01:01:45.417Z,11.93
2017-10-22T01:02:49.646Z,10.10
2017-10-22T01:03:53.845Z,17.17
2017-10-22T01:04:58.047Z,13.55
2017-10-22T01:06:02.505Z,10.60
2017-10-22T01:07:07.466Z,13.45
2017-10-22T01:08:11.706Z,12.43
2017-10-22T01:09:15.987Z,15.15
2017-10-22T01:10:20.300Z,11.88
2017-10-22T01:11:24.700Z,10.50
2017-10-22T01:12:33.034Z,11.18
2017-10-22T01:13:37.385Z,13.95
2017-10-22T01:14:41.871Z,11.75
2017-10-22T01:15:46.906Z,11.82
2017-10-22T01:16:52.054Z,7.70
2017-10-22T01:17:56.328Z,14.18
2017-10-22T01:19:01.314Z,9.20
2017-10-22T01:20:05.631Z,10.10
2017-10-22T01:21:09.926Z,13.07
2017-10-22T01:22:14.445Z,13.80
2017-10-22T01:23:18.864Z,14.87
2017-10-22T01:24:23.225Z,13.40
2017-10-22T01:25:27.505Z,12.10
2017-10-22T01:26:32.726Z,13.77
2017-10-22T01:27:37.704Z,13.05
2017-10-22T01:28:41.990Z,13.85
2017-10-22T01:29:46.306Z,11.52
2017-10-22T01:30:50.658Z,10.57
2017-10-22T01:31:55.038Z,15.50
2017-10-22T01:32:59.671Z,10.10
2017-10-22T01:34:03.946Z,14.50
2017-10-22T01:35:08.290Z,11.50
2017-10-22T01:36:12.771Z,7.65
2017-10-22T01:37:17.034Z,10.75
2017-10-22T01:38:22.034Z,12.50
2017-10-22T01:39:26.328Z,7.10
2017-10-22T01:40:30.703Z,7.82
2017-10-22T01:41:35.035Z,19.52
2017-10-22T01:42:39.334Z,8.07
2017-10-22T01:43:43.645Z,12.10
2017-10-22T01:44:47.984Z,14.18
2017-10-22T01:45:53.124Z,14.30
2017-10-22T01:46:58.334Z,12.68
2017-10-22T01:48:02.594Z,10.48
2017-10-22T01:49:06.961Z,11.90
2017-10-22T01:50:12.078Z,12.40
2017-10-22T01:51:16.385Z,17.75
2017-10-22T01:52:21.495Z,9.63
2017-10-22T01:53:26.242Z,14.50
2017-10-22T01:54:31.298Z,12.45
2017-10-22T01:55:35.557Z,14.45
2017-10-22T01:56:42.104Z,18.12
2017-10-22T01:57:46.489Z,17.60
2017-10-22T01:58:50.866Z,12.95
2017-10-22T01:59:55.184Z,13.07
2017-10-22T02:00:59.486Z,17.37
2017-10-22T02:02:03.723Z,7.22
2017-10-22T02:03:07.912Z,9.77
2017-10-22T02:04:12.154Z,13.23
2017-10-22T02:05:16.367Z,19.58
2017-10-22T02:06:20.626Z,14.30
2017-10-22T02:07:24.891Z,9.02
2017-10-22T02:08:29.986Z,14.23
2017-10-22T02:09:34.271Z,11.23
2017-10-22T02:10:38.506Z,12.18
2017-10-22T02:11:43.403Z,13.70
2017-10-22T02:12:47.651Z,10.35
2017-10-22T02:13:51.913Z,11.30
2017-10-22T02:14:56.221Z,9.77
2017-10-22T02:16:00.466Z,9.87
2017-10-22T02:17:05.610Z,10.38
2017-10-22T02:18:10.650Z,10.75
2017-10-22T02:19:15.206Z,13.60
2017-10-22T02:20:19.427Z,9.43
2017-10-22T02:21:23.788Z,12.35
2017-10-22T02:22:27.984Z,20.88
2017-10-22T02:23:32.293Z,14.68
2017-10-22T02:24:36.663Z,10.90
2017-10-22T02:25:40.868Z,12.30
2017-10-22T02:26:45.118Z,16.33
2017-10-22T02:27:49.319Z,18.17
2017-10-22T02:28:53.708Z,13.95
2017-10-22T02:29:58.726Z,17.37
2017-10-22T02:31:03.823Z,15.75
2017-10-22T02:32:08.348Z,9.88
2017-10-22T02:33:12.617Z,15.98
2017-10-22T02:34:17.683Z,13.57
2017-10-22T02:35:21.990Z,12.27
2017-10-22T02:36:26.176Z,15.88
2017-10-22T02:37:30.391Z,12.48
2017-10-22T02:38:34.692Z,16.08
2017-10-22T02:39:38.913Z,10.98
2017-10-22T02:40:43.899Z,11.68
2017-10-22T02:41:48.388Z,12.35
2017-10-22T02:42:52.581Z,9.48
2017-10-22T02:43:56.769Z,11.18
2017-10-22T02:45:01.733Z,14.25
2017-10-22T02:46:05.982Z,16.40
2017-10-22T02:47:10.190Z,11.65
2017-10-22T02:48:15.205Z,15.10
2017-10-22T02:49:19.418Z,19.85
2017-10-22T02:50:24.433Z,15.55
2017-10-22T02:51:28.712Z,15.88
2017-10-22T02:52:32.932Z,16.67
2017-10-22T02:53:37.091Z,14.25
2017-10-22T02:54:41.298Z,14.98
2017-10-22T02:55:45.462Z,14.60
2017-10-22T02:56:49.684Z,14.73
2017-10-22T02:57:53.914Z,14.10
2017-10-22T02:58:58.087Z,16.10
2017-10-22T03:00:03.037Z,17.05
2017-10-22T03:01:07.342Z,9.93
2017-10-22T03:02:11.614Z,16.60
2017-10-22T03:03:16.583Z,18.98
2017-10-22T03:04:21.487Z,15.93
2017-10-22T03:05:25.866Z,19.42
2017-10-22T03:06:30.506Z,15.85
2017-10-22T03:07:34.712Z,12.88
2017-10-22T03:08:39.330Z,17.80
2017-10-22T03:09:43.819Z,18.15
2017-10-22T03:10:48.779Z,13.88
2017-10-22T03:11:53.076Z,11.00
2017-10-22T03:12:57.958Z,10.32
2017-10-22T03:14:02.355Z,13.98
2017-10-22T03:15:07.029Z,15.13
2017-10-22T03:16:11.399Z,10.43
2017-10-22T03:17:16.418Z,10.98
2017-10-22T03:18:21.415Z,16.50
2017-10-22T03:19:26.069Z,19.80
2017-10-22T03:20:31.001Z,18.23
2017-10-22T03:21:35.348Z,16.20
2017-10-22T03:22:39.701Z,15.85
2017-10-22T03:23:44.098Z,12.95
2017-10-22T03:24:48.294Z,15.90
2017-10-22T03:25:52.479Z,18.12
2017-10-22T03:26:56.662Z,12.35
2017-10-22T03:28:00.902Z,13.50
2017-10-22T03:29:05.182Z,13.33
2017-10-22T03:30:09.842Z,15.32
2017-10-22T03:31:14.855Z,17.83
2017-10-22T03:32:19.025Z,17.60
2017-10-22T03:33:23.241Z,14.15
2017-10-22T03:34:27.540Z,11.93
2017-10-22T03:35:32.264Z,15.68
2017-10-22T03:36:36.613Z,13.00
2017-10-22T03:37:41.605Z,16.37
2017-10-22T03:38:47.376Z,17.52
2017-10-22T03:39:52.378Z,12.35
2017-10-22T03:40:56.537Z,16.10
2017-10-22T03:42:00.987Z,50.65
2017-10-22T03:43:05.295Z,24.40
2017-10-22T03:44:09.484Z,26.85
2017-10-22T03:45:13.658Z,14.38
2017-10-22T03:46:17.845Z,18.67
2017-10-22T03:47:22.085Z,15.85
2017-10-22T03:48:26.253Z,16.73
2017-10-22T03:49:31.309Z,14.07
2017-10-22T03:50:35.486Z,15.25
2017-10-22T03:51:40.496Z,13.00
2017-10-22T03:52:45.501Z,15.50
2017-10-22T03:53:49.681Z,20.95
2017-10-22T03:54:53.942Z,15.48
2017-10-22T03:55:58.866Z,17.05
2017-10-22T03:57:04.060Z,13.75
2017-10-22T03:58:08.296Z,15.82
2017-10-22T03:59:12.515Z,13.52
2017-10-22T04:00:16.771Z,14.00
2017-10-22T04:01:20.945Z,12.80
2017-10-22T04:02:25.231Z,20.03
2017-10-22T04:03:29.374Z,19.77
2017-10-22T04:04:33.490Z,15.35
2017-10-22T04:05:37.795Z,13.85
2017-10-22T04:06:42.006Z,15.10
2017-10-22T04:07:46.198Z,14.70
2017-10-22T04:08:50.350Z,9.13
2017-10-22T04:09:54.559Z,9.95
2017-10-22T04:10:58.755Z,22.00
2017-10-22T04:12:02.949Z,12.82
2017-10-22T04:13:07.910Z,9.80
2017-10-22T04:14:12.150Z,11.82
2017-10-22T04:15:16.347Z,12.75
2017-10-22T04:16:20.509Z,16.08
2017-10-22T04:17:24.709Z,11.68
2017-10-22T04:18:28.970Z,13.47
2017-10-22T04:19:33.165Z,19.60
2017-10-22T04:20:37.351Z,22.13
2017-10-22T04:21:41.698Z,16.40
2017-10-22T04:22:45.891Z,15.38
2017-10-22T04:23:50.097Z,12.93
2017-10-22T04:24:58.291Z,13.93
2017-10-22T04:26:02.507Z,15.25
2017-10-22T04:27:16.202Z,18.83
2017-10-22T04:28:22.763Z,19.95
2017-10-22T04:29:26.911Z,18.80
2017-10-22T04:30:31.809Z,20.45
2017-10-22T04:31:36.013Z,12.52
2017-10-22T04:32:40.243Z,15.25
2017-10-22T04:33:45.215Z,17.27
2017-10-22T04:34:49.636Z,27.20
2017-10-22T04:35:53.813Z,25.88
2017-10-22T04:36:57.992Z,21.40
2017-10-22T04:38:02.964Z,20.57
2017-10-22T04:39:07.185Z,18.55
2017-10-22T04:40:11.328Z,22.40
2017-10-22T04:41:15.531Z,25.07
2017-10-22T04:42:20.709Z,23.90
2017-10-22T04:43:24.863Z,26.50
2017-10-22T04:44:29.019Z,19.08
2017-10-22T04:45:33.158Z,27.50
2017-10-22T04:46:38.090Z,21.58
2017-10-22T04:47:42.999Z,23.60
2017-10-22T04:48:47.940Z,20.67
2017-10-22T04:49:52.078Z,23.30
2017-10-22T04:50:56.224Z,21.45
2017-10-22T04:52:01.200Z,21.75
2017-10-22T04:53:05.636Z,24.58
2017-10-22T04:54:09.798Z,25.55
2017-10-22T04:55:13.970Z,25.15
2017-10-22T04:56:18.918Z,20.90
2017-10-22T04:57:23.366Z,20.58
2017-10-22T04:58:27.499Z,17.67
2017-10-22T04:59:32.448Z,16.90
2017-10-22T05:00:36.664Z,21.87
2017-10-22T05:01:40.842Z,22.00
2017-10-22T05:02:45.805Z,20.00
2017-10-22T05:03:49.954Z,15.13
2017-10-22T05:04:54.111Z,22.17
2017-10-22T05:05:58.294Z,27.90
2017-10-22T05:07:02.562Z,16.63
2017-10-22T05:08:06.915Z,20.37
2017-10-22T05:09:11.084Z,22.40
2017-10-22T05:10:16.208Z,25.90
2017-10-22T05:11:21.129Z,28.02
2017-10-22T05:12:25.298Z,23.42
2017-10-22T05:13:29.417Z,20.33
2017-10-22T05:14:33.953Z,28.10
2017-10-22T05:15:38.894Z,21.02
2017-10-22T05:16:43.669Z,13.13
2017-10-22T05:17:47.832Z,18.92
2017-10-22T05:18:51.970Z,18.50
2017-10-22T05:19:56.125Z,19.92
2017-10-22T05:21:00.357Z,22.35
2017-10-22T05:22:04.586Z,11.23
2017-10-22T05:23:08.764Z,16.00
2017-10-22T05:24:12.933Z,17.35
2017-10-22T05:25:17.106Z,20.17
2017-10-22T05:26:21.318Z,21.65
2017-10-22T05:27:25.489Z,13.48
2017-10-22T05:28:29.691Z,20.75
2017-10-22T05:29:33.862Z,9.57
2017-10-22T05:30:38.055Z,18.70
2017-10-22T05:31:43.049Z,21.50
2017-10-22T05:32:47.273Z,18.73
2017-10-22T05:33:52.246Z,14.53
2017-10-22T05:34:56.393Z,20.48
2017-10-22T05:36:00.548Z,14.82
2017-10-22T05:37:04.747Z,18.85
2017-10-22T05:38:08.912Z,13.33
2017-10-22T05:39:13.939Z,18.00
2017-10-22T05:40:18.897Z,15.88
2017-10-22T05:41:23.183Z,6.85
2017-10-22T05:42:27.382Z,11.90
2017-10-22T05:43:31.577Z,11.00
2017-10-22T05:44:36.528Z,10.45
2017-10-22T05:45:40.686Z,6.87
2017-10-22T05:46:44.932Z,10.70
2017-10-22T05:47:49.097Z,15.68
2017-10-22T05:48:53.282Z,12.63
2017-10-22T05:49:57.427Z,6.72
2017-10-22T05:51:02.347Z,9.25
2017-10-22T05:52:07.329Z,12.90
2017-10-22T05:53:11.482Z,10.73
2017-10-22T05:54:15.931Z,10.90
2017-10-22T05:55:20.104Z,20.05
2017-10-22T05:56:24.263Z,10.82
2017-10-22T05:57:28.465Z,12.70
2017-10-22T05:58:32.655Z,6.80
2017-10-22T05:59:36.877Z,43.22
2017-10-22T06:00:41.108Z,25.98
2017-10-22T06:01:46.111Z,11.27
2017-10-22T06:02:51.137Z,9.00
2017-10-22T06:03:55.334Z,7.12
2017-10-22T06:04:59.582Z,11.02
2017-10-22T06:06:03.794Z,7.20
2017-10-22T06:07:08.055Z,4.70
2017-10-22T06:08:12.244Z,7.43
2017-10-22T06:09:16.657Z,11.43
2017-10-22T06:10:20.771Z,11.88
2017-10-22T06:11:25.144Z,16.87
2017-10-22T06:12:29.405Z,7.65
2017-10-22T06:13:34.514Z,14.13
2017-10-22T06:14:38.840Z,38.17
2017-10-22T06:15:43.989Z,22.92
2017-10-22T06:16:48.886Z,27.43
2017-10-22T06:17:54.267Z,28.38
2017-10-22T06:18:58.817Z,23.60
2017-10-22T06:20:03.917Z,24.45
2017-10-22T06:21:08.150Z,26.25
2017-10-22T06:22:12.548Z,27.27
2017-10-22T06:23:16.915Z,18.25
2017-10-22T06:24:21.232Z,21.00
2017-10-22T06:25:25.629Z,20.40
2017-10-22T06:26:29.851Z,17.15
2017-10-22T06:27:34.101Z,23.55
2017-10-22T06:28:39.074Z,12.23
2017-10-22T06:29:43.291Z,11.25
2017-10-22T06:30:47.517Z,13.80
2017-10-22T06:31:51.726Z,8.95
2017-10-22T06:32:56.037Z,7.43
2017-10-22T06:34:00.320Z,7.90
2017-10-22T06:35:04.849Z,12.60
2017-10-22T06:36:09.186Z,8.82
2017-10-22T06:37:14.306Z,5.47
2017-10-22T06:38:19.321Z,2.62
2017-10-22T06:39:24.398Z,6.57
2017-10-22T06:41:08.177Z,10.52
2017-10-22T06:42:13.268Z,9.75
2017-10-22T06:43:17.517Z,5.65
2017-10-22T06:44:22.638Z,7.35
2017-10-22T06:45:27.733Z,9.35
2017-10-22T06:46:32.091Z,6.95
2017-10-22T06:47:36.428Z,7.50
2017-10-22T06:48:40.742Z,6.35
2017-10-22T06:49:45.389Z,4.70
2017-10-22T06:50:49.621Z,4.05
2017-10-22T06:51:54.790Z,6.00
2017-10-22T06:52:59.106Z,3.65
2017-10-22T06:54:09.218Z,3.12
2017-10-22T06:55:15.147Z,5.03
2017-10-22T06:56:21.097Z,4.18
2017-10-22T06:57:27.009Z,13.93
2017-10-22T06:58:34.551Z,14.00
2017-10-22T06:59:40.731Z,25.37
2017-10-22T07:00:45.562Z,23.58
2017-10-22T07:01:50.056Z,9.82
2017-10-22T07:02:54.507Z,10.25
2017-10-22T07:03:59.723Z,8.43
2017-10-22T07:05:04.838Z,6.53
2017-10-22T07:06:09.607Z,5.03
2017-10-22T07:07:14.036Z,8.45
2017-10-22T07:08:18.386Z,3.85
2017-10-22T07:09:23.429Z,5.68
2017-10-22T07:10:27.802Z,4.13
2017-10-22T07:11:32.055Z,3.75
2017-10-22T07:12:37.245Z,8.27
2017-10-22T07:13:44.460Z,6.80
2017-10-22T07:14:49.984Z,3.35
2017-10-22T07:15:55.157Z,2.42
2017-10-22T07:17:00.427Z,1.80
2017-10-22T07:18:06.591Z,4.20
2017-10-22T07:19:12.540Z,6.37
2017-10-22T07:20:19.994Z,2.62
2017-10-22T07:21:24.559Z,3.37
2017-10-22T07:22:30.749Z,1.50
2017-10-22T07:23:35.744Z,3.28
2017-10-22T07:24:40.414Z,3.60
2017-10-22T07:25:47.330Z,4.20
2017-10-22T07:26:55.787Z,4.95
2017-10-22T07:28:01.739Z,3.35
2017-10-22T07:29:07.628Z,2.20
2017-10-22T07:30:12.953Z,5.40
2017-10-22T07:31:17.173Z,2.13
2017-10-22T07:32:21.398Z,5.10
2017-10-22T07:33:26.577Z,3.25
2017-10-22T07:34:30.941Z,2.37
2017-10-22T07:35:37.370Z,2.53
2017-10-22T07:36:41.638Z,3.10
2017-10-22T07:37:46.015Z,2.12
2017-10-22T07:38:51.067Z,2.17
2017-10-22T07:39:55.400Z,1.90
2017-10-22T07:40:59.972Z,3.40
2017-10-22T07:42:04.746Z,3.67
2017-10-22T07:43:08.997Z,1.90
2017-10-22T07:44:13.360Z,4.28
2017-10-22T07:45:17.617Z,4.15
2017-10-22T07:46:22.106Z,4.37
2017-10-22T07:47:27.231Z,30.02
2017-10-22T07:48:32.365Z,3.78
2017-10-22T07:49:37.611Z,7.10
2017-10-22T07:50:42.133Z,12.07
2017-10-22T07:51:46.628Z,2.17
2017-10-22T07:52:50.921Z,3.40
2017-10-22T07:53:55.880Z,6.97
2017-10-22T07:55:00.096Z,2.23
2017-10-22T07:56:04.339Z,7.53
2017-10-22T07:57:08.696Z,5.03
2017-10-22T07:58:12.969Z,3.30
2017-10-22T07:59:18.102Z,10.93
2017-10-22T08:00:23.170Z,20.77
2017-10-22T08:01:27.354Z,11.25
2017-10-22T08:02:31.587Z,8.93
2017-10-22T08:03:37.492Z,2.45
2017-10-22T08:04:41.721Z,5.85
2017-10-22T08:05:46.031Z,6.37
2017-10-22T08:06:50.282Z,5.70
2017-10-22T08:07:55.338Z,5.05
2017-10-22T08:08:59.607Z,2.42
2017-10-22T08:10:04.360Z,2.30
2017-10-22T08:11:08.755Z,3.47
2017-10-22T08:12:13.935Z,3.10
2017-10-22T08:13:18.270Z,3.55
2017-10-22T08:14:22.647Z,2.30
2017-10-22T08:15:26.965Z,2.90
2017-10-22T08:16:31.192Z,3.45
2017-10-22T08:17:36.263Z,3.12
2017-10-22T08:18:40.580Z,3.60
2017-10-22T08:19:44.932Z,6.22
2017-10-22T08:20:49.945Z,5.18
2017-10-22T08:21:54.359Z,5.78
2017-10-22T08:22:58.700Z,4.50
2017-10-22T08:24:03.697Z,5.60
2017-10-22T08:25:08.300Z,2.90
2017-10-22T08:26:12.534Z,5.10
2017-10-22T08:27:17.511Z,3.37
2017-10-22T08:28:21.787Z,4.40
2017-10-22T08:29:26.289Z,4.65
2017-10-22T08:30:31.055Z,4.85
2017-10-22T08:31:35.528Z,3.70
2017-10-22T08:32:42.222Z,2.90
2017-10-22T08:33:46.563Z,4.60
2017-10-22T08:34:50.990Z,2.95
2017-10-22T08:35:55.906Z,5.50
2017-10-22T08:37:01.066Z,4.97
2017-10-22T08:38:05.402Z,5.50
2017-10-22T08:39:09.667Z,4.82
2017-10-22T08:40:14.188Z,4.00
2017-10-22T08:41:19.049Z,4.70
2017-10-22T08:42:23.724Z,8.85
2017-10-22T08:43:28.165Z,7.87
2017-10-22T08:44:32.428Z,3.23
2017-10-22T08:45:37.286Z,4.25
2017-10-22T08:46:42.641Z,4.00
2017-10-22T08:47:47.417Z,4.25
2017-10-22T08:48:52.024Z,5.22
2017-10-22T08:49:57.133Z,3.83
2017-10-22T08:51:02.500Z,5.10
2017-10-22T08:52:07.188Z,4.12
2017-10-22T08:53:12.572Z,4.20
2017-10-22T08:54:17.730Z,4.40
2017-10-22T08:55:22.325Z,2.67
2017-10-22T08:56:26.781Z,3.90
2017-10-22T08:57:31.307Z,3.70
2017-10-22T08:58:35.794Z,3.97
2017-10-22T08:59:40.120Z,4.05
2017-10-22T09:00:45.828Z,5.80
2017-10-22T09:01:52.054Z,4.00
2017-10-22T09:02:57.039Z,6.85
2017-10-22T09:04:05.225Z,3.37
2017-10-22T09:05:10.398Z,5.20
2017-10-22T09:06:17.369Z,4.93
2017-10-22T09:07:24.684Z,4.28
2017-10-22T09:08:29.882Z,5.90
2017-10-22T09:09:34.690Z,2.03
2017-10-22T09:10:40.354Z,2.40
2017-10-22T09:11:45.390Z,6.25
2017-10-22T09:12:50.272Z,4.10
2017-10-22T09:13:56.236Z,2.90
2017-10-22T09:15:02.242Z,38.00
2017-10-22T09:16:07.176Z,8.25
2017-10-22T09:17:13.390Z,3.58
2017-10-22T09:18:18.354Z,3.70
2017-10-22T09:19:23.321Z,1.40
2017-10-22T09:20:27.706Z,5.20
2017-10-22T09:21:32.906Z,2.05
2017-10-22T09:22:37.333Z,2.43
2017-10-22T09:29:24.604Z,3.42
2017-10-22T09:30:30.258Z,3.95
2017-10-22T09:31:35.070Z,2.50
2017-10-22T09:32:39.972Z,1.25
2017-10-22T09:33:45.395Z,1.80
2017-10-22T09:34:50.441Z,1.00
2017-10-22T09:35:55.109Z,4.50
2017-10-22T09:36:59.767Z,3.08
2017-10-22T09:38:04.650Z,1.48
2017-10-22T09:39:08.976Z,7.03
2017-10-22T09:40:13.614Z,120.50
2017-10-22T09:41:18.836Z,123.65
2017-10-22T09:42:23.996Z,169.37
2017-10-22T09:43:28.339Z,146.55
2017-10-22T09:44:32.792Z,101.03
2017-10-22T09:45:37.501Z,131.13
2017-10-22T09:46:42.625Z,62.72
2017-10-22T09:47:47.764Z,53.22
2017-10-22T09:48:52.367Z,73.60
2017-10-22T09:49:57.763Z,39.23
2017-10-22T09:51:02.368Z,21.27
2017-10-22T09:52:06.914Z,41.70
2017-10-22T09:53:11.209Z,13.38
2017-10-22T09:54:16.359Z,21.80
2017-10-22T09:55:21.568Z,24.55
2017-10-22T09:56:26.156Z,18.80
2017-10-22T09:57:30.726Z,3.60
2017-10-22T09:58:35.939Z,16.35
2017-10-22T09:59:41.406Z,19.95
2017-10-22T10:00:45.971Z,16.23
2017-10-22T10:01:50.373Z,50.55
2017-10-22T10:02:54.703Z,16.10
2017-10-22T10:03:59.841Z,8.10
2017-10-22T10:05:04.199Z,8.93
2017-10-22T10:06:08.861Z,22.37
2017-10-22T10:07:15.340Z,13.20
2017-10-22T10:08:19.952Z,11.00
2017-10-22T10:09:24.322Z,27.17
2017-10-22T10:10:29.377Z,4.50
2017-10-22T10:11:33.718Z,16.40
2017-10-22T10:12:38.138Z,17.20
2017-10-22T10:13:42.553Z,13.68
2017-10-22T10:14:46.921Z,10.57
2017-10-22T10:15:51.226Z,27.80
2017-10-22T10:16:55.575Z,33.58
2017-10-22T10:17:59.926Z,17.35
2017-10-22T10:19:05.217Z,26.43
2017-10-22T10:20:09.757Z,25.10
2017-10-22T10:21:14.863Z,45.28
2017-10-22T10:22:19.276Z,42.78
2017-10-22T10:23:23.637Z,13.00
2017-10-22T10:24:28.121Z,9.43
2017-10-22T10:25:33.364Z,9.35
2017-10-22T10:26:38.205Z,8.80
2017-10-22T10:27:43.591Z,13.18
2017-10-22T10:28:48.249Z,18.95
2017-10-22T10:29:52.591Z,21.57
2017-10-22T10:30:56.991Z,12.00
2017-10-22T10:32:01.542Z,7.78
2017-10-22T10:33:06.660Z,6.20
2017-10-22T10:34:11.878Z,5.43
2017-10-22T10:35:17.921Z,10.40
2017-10-22T10:36:22.238Z,6.97
2017-10-22T10:37:26.687Z,3.60
2017-10-22T10:38:32.430Z,6.30
2017-10-22T10:39:36.797Z,3.37
2017-10-22T10:40:41.257Z,10.80
2017-10-22T10:41:45.793Z,2.67
2017-10-22T10:42:50.350Z,4.28
2017-10-22T10:43:58.190Z,12.10
2017-10-22T10:45:03.121Z,7.60
2017-10-22T10:46:08.265Z,7.50
2017-10-22T10:47:15.921Z,6.68
2017-10-22T10:48:21.321Z,8.48
2017-10-22T10:49:28.795Z,8.85
2017-10-22T10:50:33.987Z,13.53
2017-10-22T10:51:38.369Z,15.70
2017-10-22T10:52:43.947Z,6.62
2017-10-22T10:53:49.523Z,7.85
2017-10-22T10:54:55.507Z,6.75
2017-10-22T10:56:02.950Z,9.80
2017-10-22T10:57:08.821Z,7.12
2017-10-22T10:58:15.345Z,4.37
2017-10-22T10:59:21.843Z,4.37
2017-10-22T11:00:26.983Z,7.65
2017-10-22T11:01:31.375Z,7.40
2017-10-22T11:02:36.569Z,40.95
2017-10-22T11:03:43.739Z,8.82
2017-10-22T11:04:48.933Z,4.97
2017-10-22T11:05:54.056Z,9.68
2017-10-22T11:07:04.557Z,7.90
2017-10-22T11:08:09.927Z,9.37
2017-10-22T11:09:14.835Z,3.78
2017-10-22T11:10:19.138Z,4.28
2017-10-22T11:11:23.646Z,4.68
2017-10-22T11:12:28.324Z,4.65
2017-10-22T11:13:33.657Z,26.77
2017-10-22T11:14:38.043Z,7.82
2017-10-22T11:15:42.360Z,5.20
2017-10-22T11:16:47.589Z,4.90
2017-10-22T11:17:53.939Z,3.03
2017-10-22T11:18:59.870Z,3.53
2017-10-22T11:20:05.013Z,4.70
2017-10-22T11:21:12.987Z,3.65
2017-10-22T11:22:18.916Z,6.18
2017-10-22T11:23:24.289Z,8.73
2017-10-22T11:24:30.089Z,3.37
2017-10-22T11:25:36.071Z,3.47
2017-10-22T11:26:42.137Z,3.50
2017-10-22T11:27:49.513Z,5.80
2017-10-22T11:28:55.236Z,9.48
2017-10-22T11:30:00.276Z,9.45
2017-10-22T11:31:06.882Z,5.50
2017-10-22T11:32:11.290Z,19.70
2017-10-22T11:33:15.781Z,41.17
2017-10-22T11:34:20.115Z,17.27
2017-10-22T11:35:24.327Z,5.20
2017-10-22T11:36:28.631Z,8.10
2017-10-22T11:37:32.886Z,5.10
2017-10-22T11:38:37.999Z,6.55
2017-10-22T11:39:43.111Z,3.30
2017-10-22T11:40:47.417Z,6.70
2017-10-22T11:41:51.934Z,6.40
2017-10-22T11:42:56.485Z,8.45
2017-10-22T11:44:00.974Z,5.22
2017-10-22T11:45:08.605Z,24.23
2017-10-22T11:46:13.364Z,13.88
2017-10-22T11:47:18.523Z,12.80
2017-10-22T11:48:23.337Z,8.18
2017-10-22T11:49:27.965Z,7.12
2017-10-22T11:50:32.703Z,7.05
2017-10-22T11:51:37.214Z,4.75
2017-10-22T11:52:41.522Z,5.95
2017-10-22T11:53:45.818Z,7.85
2017-10-22T11:54:50.451Z,11.27
2017-10-22T11:55:56.674Z,5.03
2017-10-22T11:57:01.090Z,6.60
2017-10-22T11:58:05.470Z,10.63
2017-10-22T11:59:10.557Z,12.85
2017-10-22T12:00:15.114Z,9.25
2017-10-22T12:01:20.364Z,10.77
2017-10-22T12:02:24.696Z,12.23
2017-10-22T12:03:29.035Z,8.32
2017-10-22T12:04:33.335Z,6.65
2017-10-22T12:05:38.144Z,10.05
2017-10-22T12:06:42.477Z,10.73
2017-10-22T12:07:47.604Z,6.15
2017-10-22T12:08:52.587Z,12.57
2017-10-22T12:09:56.965Z,7.53
2017-10-22T12:11:01.547Z,13.27
2017-10-22T12:12:06.685Z,6.80
2017-10-22T12:13:11.950Z,9.18
2017-10-22T12:14:16.317Z,10.65
2017-10-22T12:15:21.562Z,8.75
2017-10-22T12:16:26.147Z,9.32
2017-10-22T12:17:31.343Z,7.45
2017-10-22T12:18:35.766Z,7.62
2017-10-22T12:19:40.083Z,13.80
2017-10-22T12:20:44.574Z,12.32
2017-10-22T12:21:49.444Z,9.82
2017-10-22T12:22:54.477Z,9.55
2017-10-22T12:23:58.813Z,7.35
2017-10-22T12:25:03.406Z,5.65
2017-10-22T12:26:09.222Z,48.67
2017-10-22T12:27:14.903Z,18.48
2017-10-22T12:28:19.229Z,19.60
2017-10-22T12:29:23.714Z,15.23
2017-10-22T12:30:28.091Z,11.38
2017-10-22T12:31:32.440Z,13.20
2017-10-22T12:32:37.007Z,8.30
2017-10-22T12:33:42.086Z,13.10
2017-10-22T12:34:47.062Z,12.43
2017-10-22T12:35:52.961Z,8.80
2017-10-22T12:36:57.395Z,10.47
2017-10-22T12:38:01.973Z,6.62
2017-10-22T12:39:07.274Z,10.30
2017-10-22T12:40:11.616Z,12.63
2017-10-22T12:41:16.099Z,12.35
2017-10-22T12:42:20.606Z,13.10
2017-10-22T12:43:25.043Z,11.02
2017-10-22T12:44:29.318Z,9.20
2017-10-22T12:45:33.605Z,7.30
2017-10-22T12:46:38.932Z,6.32
2017-10-22T12:47:43.418Z,8.50
2017-10-22T12:48:49.813Z,8.03
2017-10-22T12:49:55.018Z,8.90
2017-10-22T12:50:59.330Z,8.88
2017-10-22T12:52:03.787Z,11.32
2017-10-22T12:53:08.076Z,7.55
2017-10-22T12:54:12.477Z,10.43
2017-10-22T12:55:17.798Z,12.32
2017-10-22T12:56:22.148Z,117.75
2017-10-22T12:57:26.437Z,24.12
2017-10-22T12:58:30.984Z,12.40
2017-10-22T12:59:36.604Z,18.42
2017-10-22T13:00:40.915Z,15.27
2017-10-22T13:01:45.433Z,13.20
2017-10-22T13:02:49.765Z,9.70
2017-10-22T13:03:54.151Z,8.63
2017-10-22T13:04:58.690Z,16.65
2017-10-22T13:06:04.233Z,10.60
2017-10-22T13:07:08.637Z,7.55
2017-10-22T13:08:13.711Z,13.10
2017-10-22T13:09:17.975Z,9.75
2017-10-22T13:10:23.466Z,15.73
2017-10-22T13:11:29.612Z,16.27
2017-10-22T13:12:34.171Z,11.88
2017-10-22T13:13:38.690Z,4.70
2017-10-22T13:14:43.063Z,14.82
2017-10-22T13:15:47.545Z,10.98
2017-10-22T13:16:51.999Z,15.68
2017-10-22T13:17:56.409Z,13.83
2017-10-22T13:19:00.796Z,12.88
2017-10-22T13:20:05.268Z,12.40
2017-10-22T13:21:09.837Z,12.30
2017-10-22T13:22:14.769Z,8.15
2017-10-22T13:23:19.168Z,12.10
2017-10-22T13:25:42.855Z,12.30
2017-10-22T13:26:47.978Z,14.90
2017-10-22T13:27:52.401Z,15.88
2017-10-22T13:28:57.752Z,19.83
2017-10-22T13:30:02.912Z,12.65
2017-10-22T13:31:07.248Z,17.65
2017-10-22T13:32:12.330Z,14.75
2017-10-22T13:33:16.777Z,48.63
2017-10-22T13:34:21.364Z,30.70
2017-10-22T13:35:26.676Z,22.35
2017-10-22T13:36:31.284Z,16.48
2017-10-22T13:37:35.897Z,13.43
2017-10-22T13:38:41.023Z,12.23
2017-10-22T13:39:45.738Z,7.90
2017-10-22T13:40:50.951Z,10.93
2017-10-22T13:41:55.349Z,11.20
2017-10-22T13:42:59.743Z,20.30
2017-10-22T13:44:04.193Z,18.45
2017-10-22T13:45:09.399Z,15.63
2017-10-22T13:46:13.778Z,12.00
2017-10-22T13:47:18.903Z,13.55
2017-10-22T13:48:23.472Z,16.12
2017-10-22T13:49:28.682Z,11.45
2017-10-22T13:50:33.431Z,15.52
2017-10-22T13:51:37.790Z,15.65
2017-10-22T13:52:42.128Z,10.40
2017-10-22T13:53:48.223Z,12.60
2017-10-22T13:54:52.786Z,9.57
2017-10-22T13:55:58.141Z,8.90
2017-10-22T13:57:02.513Z,10.95
2017-10-22T13:58:06.940Z,16.08
2017-10-22T13:59:11.346Z,16.60
2017-10-22T14:00:16.442Z,13.85
2017-10-22T14:01:21.577Z,10.47
2017-10-22T14:02:25.859Z,8.43
2017-10-22T14:03:30.322Z,14.02
2017-10-22T14:04:36.558Z,19.90
2017-10-22T14:05:41.695Z,14.48
2017-10-22T14:06:46.845Z,11.12
2017-10-22T14:07:52.081Z,14.18
2017-10-22T14:08:56.449Z,11.15
2017-10-22T14:10:01.835Z,11.57
2017-10-22T14:11:06.235Z,10.52
2017-10-22T14:12:10.689Z,13.55